createdAt,value
2016-03-19T00:00:30.017Z,99.96
2016-03-19T00:01:30.004Z,99.96
2016-03-19T00:02:30.022Z,99.77
2016-03-19T00:03:29.978Z,99.99
2016-03-19T00:04:29.965Z,99.99
2016-03-19T00:05:29.952Z,99.99
2016-03-19T00:06:29.955Z,99.99
2016-03-19T00:07:29.910Z,99.99
2016-03-19T00:08:29.897Z,99.99
2016-03-19T00:09:29.900Z,99.99
2016-03-19T00:10:29.872Z,99.99
2016-03-19T00:11:29.843Z,99.99
2016-03-19T00:12:29.830Z,99.87
2016-03-19T00:13:29.817Z,99.99
2016-03-19T00:14:29.804Z,99.99
2016-03-19T00:15:29.791Z,99.99
2016-03-19T00:16:29.779Z,99.99
2016-03-19T00:17:29.765Z,99.99
2016-03-19T00:18:29.753Z,99.99
2016-03-19T00:19:29.724Z,99.99
2016-03-19T00:20:29.711Z,99.99
2016-03-19T00:21:29.698Z,99.99
2016-03-19T00:22:29.670Z,99.99
2016-03-19T00:23:29.673Z,99.99
2016-03-19T00:24:29.660Z,99.99
2016-03-19T00:25:29.631Z,99.99
2016-03-19T00:26:29.618Z,99.99
2016-03-19T00:27:29.605Z,99.99
2016-03-19T00:28:29.607Z,99.99
2016-03-19T00:29:29.579Z,99.99
2016-03-19T00:30:29.551Z,99.99
2016-03-19T00:31:29.538Z,99.99
2016-03-19T00:32:29.525Z,99.99
2016-03-19T00:33:29.512Z,99.99
2016-03-19T00:34:29.484Z,99.99
2016-03-19T00:35:29.486Z,99.99
2016-03-19T00:36:29.458Z,99.99
2016-03-19T00:37:29.444Z,99.99
2016-03-19T00:38:29.464Z,99.99
2016-03-19T00:39:29.419Z,99.99
2016-03-19T00:40:29.390Z,99.99
2016-03-19T00:41:29.377Z,99.99
2016-03-19T00:42:29.364Z,99.99
2016-03-19T00:43:29.351Z,99.99
2016-03-19T00:44:29.339Z,99.99
2016-03-19T00:45:29.326Z,99.99
2016-03-19T00:46:29.313Z,99.99
2016-03-19T00:47:29.144Z,99.99
2016-03-19T00:48:29.271Z,99.99
2016-03-19T00:49:29.258Z,99.99
2016-03-19T00:50:29.246Z,99.99
2016-03-19T00:51:29.233Z,99.99
2016-03-19T00:52:29.219Z,99.99
2016-03-19T00:53:29.035Z,99.99
2016-03-19T00:54:29.178Z,99.99
2016-03-19T00:55:29.165Z,99.99
2016-03-19T00:56:29.137Z,99.99
2016-03-19T00:57:29.124Z,99.99
2016-03-19T00:58:29.110Z,99.99
2016-03-19T00:59:29.098Z,99.99
2016-03-19T01:00:29.085Z,99.99
2016-03-19T01:01:29.071Z,99.99
2016-03-19T01:02:29.043Z,99.99
2016-03-19T01:03:29.030Z,99.99
2016-03-19T01:04:29.018Z,99.99
2016-03-19T01:05:29.004Z,99.99
2016-03-19T01:06:28.992Z,99.99
2016-03-19T01:07:28.979Z,99.99
2016-03-19T01:08:28.941Z,99.99
2016-03-19T01:09:28.918Z,99.99
2016-03-19T01:10:28.897Z,99.99
2016-03-19T01:11:28.874Z,99.99
2016-03-19T01:12:28.851Z,99.99
2016-03-19T01:13:28.818Z,99.99
2016-03-19T01:14:28.848Z,99.99
2016-03-19T01:15:28.786Z,99.99
2016-03-19T01:16:28.785Z,99.99
2016-03-19T01:17:28.753Z,99.99
2016-03-19T01:18:28.738Z,99.99
2016-03-19T01:19:28.709Z,99.99
2016-03-19T01:20:28.694Z,99.99
2016-03-19T01:21:28.680Z,99.99
2016-03-19T01:22:28.667Z,99.99
2016-03-19T01:23:28.653Z,99.99
2016-03-19T01:24:28.640Z,99.99
2016-03-19T01:25:28.611Z,99.99
2016-03-19T01:26:28.598Z,99.99
2016-03-19T01:27:28.584Z,99.99
2016-03-19T01:28:28.571Z,99.99
2016-03-19T01:29:28.559Z,99.99
2016-03-19T01:30:28.531Z,99.99
2016-03-19T01:31:28.533Z,99.99
2016-03-19T01:32:28.519Z,99.99
2016-03-19T01:33:28.491Z,99.99
2016-03-19T01:34:28.478Z,99.99
2016-03-19T01:35:28.465Z,99.99
2016-03-19T01:36:28.437Z,99.99
2016-03-19T01:37:28.424Z,99.99
2016-03-19T01:38:28.427Z,99.99
2016-03-19T01:39:28.850Z,99.99
2016-03-19T01:40:28.385Z,99.99
2016-03-19T01:41:28.372Z,99.99
2016-03-19T01:42:28.343Z,99.99
2016-03-19T01:43:28.330Z,99.99
2016-03-19T01:44:28.317Z,99.99
2016-03-19T01:45:28.321Z,99.99
2016-03-19T01:46:28.291Z,99.99
2016-03-19T01:47:28.279Z,99.99
2016-03-19T01:48:28.250Z,99.99
2016-03-19T01:49:28.237Z,99.99
2016-03-19T01:50:28.224Z,99.99
2016-03-19T01:51:28.195Z,99.99
2016-03-19T01:52:28.183Z,99.99
2016-03-19T01:53:28.170Z,99.99
2016-03-19T01:54:28.157Z,99.99
2016-03-19T01:55:28.159Z,99.99
2016-03-19T01:56:28.131Z,99.99
2016-03-19T01:57:28.103Z,99.99
2016-03-19T01:58:28.089Z,99.99
2016-03-19T01:59:28.077Z,99.99
2016-03-19T02:00:28.064Z,99.99
2016-03-19T02:01:28.051Z,99.99
2016-03-19T02:02:28.022Z,99.99
2016-03-19T02:03:28.009Z,99.99
2016-03-19T02:04:27.997Z,99.99
2016-03-19T02:05:27.984Z,99.99
2016-03-19T02:06:27.986Z,99.99
2016-03-19T02:07:27.941Z,99.99
2016-03-19T02:08:27.929Z,99.99
2016-03-19T02:09:27.916Z,99.99
2016-03-19T02:10:27.903Z,99.99
2016-03-19T02:11:27.891Z,99.99
2016-03-19T02:12:27.861Z,99.99
2016-03-19T02:13:27.849Z,99.99
2016-03-19T02:14:27.835Z,99.99
2016-03-19T02:15:27.823Z,99.99
2016-03-19T02:16:27.825Z,99.99
2016-03-19T02:17:27.796Z,99.99
2016-03-19T02:18:27.768Z,99.99
2016-03-19T02:19:27.755Z,99.99
2016-03-19T02:20:27.742Z,99.99
2016-03-19T02:21:27.792Z,99.99
2016-03-19T02:22:27.701Z,99.99
2016-03-19T02:23:27.985Z,98.96
2016-03-19T02:24:27.675Z,98.58
2016-03-19T02:25:27.662Z,98.58
2016-03-19T02:26:27.665Z,98.49
2016-03-19T02:27:27.621Z,98.49
2016-03-19T02:28:27.607Z,98.21
2016-03-19T02:29:27.609Z,98.39
2016-03-19T02:30:27.597Z,98.87
2016-03-19T02:31:27.569Z,98.58
2016-03-19T02:32:27.572Z,98.58
2016-03-19T02:33:27.528Z,97.83
2016-03-19T02:34:27.515Z,98.87
2016-03-19T02:35:27.533Z,98.39
2016-03-19T02:36:27.488Z,98.49
2016-03-19T02:37:27.475Z,98.58
2016-03-19T02:38:27.463Z,98.39
2016-03-19T02:39:27.466Z,98.3
2016-03-19T02:40:27.436Z,98.87
2016-03-19T02:41:27.408Z,98.49
2016-03-19T02:42:27.395Z,98.39
2016-03-19T02:43:27.383Z,97.54
2016-03-19T02:44:27.369Z,97.83
2016-03-19T02:45:27.357Z,97.97
2016-03-19T02:46:27.360Z,98.21
2016-03-19T02:47:27.315Z,98.02
2016-03-19T02:48:27.302Z,98.02
2016-03-19T02:49:27.289Z,98.02
2016-03-19T02:50:27.308Z,98.02
2016-03-19T02:51:27.248Z,97.73
2016-03-19T02:52:27.078Z,97.83
2016-03-19T02:53:27.221Z,97.69
2016-03-19T02:54:27.209Z,97.73
2016-03-19T02:55:27.196Z,97.83
2016-03-19T02:56:27.182Z,98.02
2016-03-19T02:57:27.154Z,97.88
2016-03-19T02:58:27.142Z,97.83
2016-03-19T02:59:27.128Z,97.92
2016-03-19T03:00:27.116Z,97.88
2016-03-19T03:01:27.103Z,97.78
2016-03-19T03:02:27.106Z,98.87
2016-03-19T03:03:27.061Z,98.39
2016-03-19T03:04:27.048Z,98.58
2016-03-19T03:05:27.051Z,98.77
2016-03-19T03:06:27.022Z,98.92
2016-03-19T03:07:27.009Z,98.3
2016-03-19T03:08:26.997Z,98.39
2016-03-19T03:09:26.967Z,98.49
2016-03-19T03:10:26.955Z,98.49
2016-03-19T03:11:26.942Z,98.58
2016-03-19T03:12:26.930Z,98.87
2016-03-19T03:13:26.916Z,98.77
2016-03-19T03:14:26.902Z,99.25
2016-03-19T03:15:26.874Z,99.25
2016-03-19T03:16:26.861Z,99.63
2016-03-19T03:17:26.864Z,99.44
2016-03-19T03:18:26.835Z,99.25
2016-03-19T03:19:26.824Z,99.06
2016-03-19T03:20:26.810Z,99.15
2016-03-19T03:21:26.781Z,99.15
2016-03-19T03:22:26.768Z,99.25
2016-03-19T03:23:26.771Z,99.06
2016-03-19T03:24:26.587Z,98.77
2016-03-19T03:25:26.729Z,98.77
2016-03-19T03:26:26.717Z,98.68
2016-03-19T03:27:26.688Z,99.06
2016-03-19T03:28:26.675Z,99.15
2016-03-19T03:29:26.662Z,98.87
2016-03-19T03:30:26.649Z,99.34
2016-03-19T03:31:26.637Z,98.96
2016-03-19T03:32:26.624Z,98.96
2016-03-19T03:33:26.595Z,99.25
2016-03-19T03:34:26.582Z,99.15
2016-03-19T03:35:26.772Z,98.87
2016-03-19T03:36:26.556Z,98.68
2016-03-19T03:37:26.543Z,98.58
2016-03-19T03:38:26.515Z,98.87
2016-03-19T03:39:26.502Z,98.39
2016-03-19T03:40:26.505Z,98.39
2016-03-19T03:41:26.476Z,98.21
2016-03-19T03:42:26.464Z,98.21
2016-03-19T03:43:26.450Z,98.39
2016-03-19T03:44:26.436Z,98.39
2016-03-19T03:45:26.424Z,98.49
2016-03-19T03:46:26.396Z,98.39
2016-03-19T03:47:26.382Z,98.49
2016-03-19T03:48:26.369Z,98.68
2016-03-19T03:49:26.356Z,98.68
2016-03-19T03:50:26.328Z,98.58
2016-03-19T03:51:26.330Z,99.06
2016-03-19T03:52:26.302Z,98.77
2016-03-19T03:53:26.290Z,98.68
2016-03-19T03:54:26.276Z,98.87
2016-03-19T03:55:26.248Z,98.87
2016-03-19T03:56:26.250Z,98.68
2016-03-19T03:57:26.238Z,98.39
2016-03-19T03:58:26.209Z,98.58
2016-03-19T03:59:26.195Z,97.92
2016-03-19T04:00:26.183Z,98.11
2016-03-19T04:01:26.170Z,98.02
2016-03-19T04:02:26.157Z,98.11
2016-03-19T04:03:26.128Z,97.64
2016-03-19T04:04:26.116Z,97.92
2016-03-19T04:05:26.103Z,98.11
2016-03-19T04:06:26.089Z,97.83
2016-03-19T04:07:26.077Z,97.54
2016-03-19T04:08:26.064Z,97.35
2016-03-19T04:09:26.036Z,97.07
2016-03-19T04:10:26.038Z,96.97
2016-03-19T04:11:25.853Z,96.97
2016-03-19T04:12:25.996Z,96.88
2016-03-19T04:13:25.984Z,96.97
2016-03-19T04:14:25.971Z,96.78
2016-03-19T04:15:25.942Z,97.16
2016-03-19T04:16:25.945Z,97.35
2016-03-19T04:17:25.916Z,97.73
2016-03-19T04:18:25.903Z,97.92
2016-03-19T04:19:25.875Z,97.73
2016-03-19T04:20:25.863Z,97.92
2016-03-19T04:21:25.849Z,98.21
2016-03-19T04:22:25.835Z,97.92
2016-03-19T04:23:25.823Z,97.92
2016-03-19T04:24:25.826Z,97.92
2016-03-19T04:25:25.796Z,98.11
2016-03-19T04:26:25.769Z,97.92
2016-03-19T04:27:25.756Z,98.02
2016-03-19T04:28:25.946Z,97.83
2016-03-19T04:29:25.729Z,98.02
2016-03-19T04:30:25.717Z,97.92
2016-03-19T04:31:25.688Z,97.83
2016-03-19T04:32:25.675Z,98.21
2016-03-19T04:33:25.662Z,97.73
2016-03-19T04:34:25.664Z,97.45
2016-03-19T04:35:25.653Z,97.35
2016-03-19T04:36:25.623Z,97.83
2016-03-19T04:37:25.595Z,97.83
2016-03-19T04:38:25.582Z,97.83
2016-03-19T04:39:25.584Z,97.54
2016-03-19T04:40:25.556Z,97.54
2016-03-19T04:41:25.558Z,97.64
2016-03-19T04:42:25.531Z,97.83
2016-03-19T04:43:25.517Z,97.73
2016-03-19T04:44:25.505Z,97.73
2016-03-19T04:45:25.475Z,97.73
2016-03-19T04:46:25.463Z,97.73
2016-03-19T04:47:25.450Z,97.83
2016-03-19T04:48:25.437Z,97.54
2016-03-19T04:49:25.425Z,97.26
2016-03-19T04:50:25.411Z,97.83
2016-03-19T04:51:25.383Z,97.73
2016-03-19T04:52:25.385Z,98.21
2016-03-19T04:53:25.372Z,98.11
2016-03-19T04:54:25.344Z,97.64
2016-03-19T04:55:25.331Z,97.73
2016-03-19T04:56:25.302Z,97.73
2016-03-19T04:57:25.290Z,98.02
2016-03-19T04:58:25.276Z,98.3
2016-03-19T04:59:25.263Z,97.83
2016-03-19T05:00:25.251Z,97.92
2016-03-19T05:01:25.223Z,97.83
2016-03-19T05:02:25.210Z,98.39
2016-03-19T05:03:25.196Z,98.68
2016-03-19T05:04:25.167Z,98.39
2016-03-19T05:05:25.171Z,98.58
2016-03-19T05:06:25.001Z,98.39
2016-03-19T05:07:25.128Z,98.58
2016-03-19T05:08:25.131Z,98.87
2016-03-19T05:09:25.119Z,98.96
2016-03-19T05:10:25.106Z,98.96
2016-03-19T05:11:25.077Z,99.06
2016-03-19T05:12:25.081Z,99.34
2016-03-19T05:13:25.051Z,99.06
2016-03-19T05:14:25.023Z,99.25
2016-03-19T05:15:25.010Z,99.34
2016-03-19T05:16:24.997Z,99.53
2016-03-19T05:17:24.983Z,99.15
2016-03-19T05:18:24.955Z,99.15
2016-03-19T05:19:24.957Z,99.72
2016-03-19T05:20:24.930Z,99.63
2016-03-19T05:21:24.916Z,99.99
2016-03-19T05:22:24.901Z,99.99
2016-03-19T05:23:24.888Z,99.99
2016-03-19T05:24:24.859Z,99.99
2016-03-19T05:25:24.847Z,99.99
2016-03-19T05:26:24.833Z,99.99
2016-03-19T05:27:24.820Z,99.99
2016-03-19T05:28:24.808Z,99.99
2016-03-19T05:29:24.795Z,99.99
2016-03-19T05:30:24.766Z,99.99
2016-03-19T05:31:24.753Z,99.99
2016-03-19T05:32:24.740Z,99.99
2016-03-19T05:33:24.727Z,99.99
2016-03-19T05:34:24.714Z,99.99
2016-03-19T05:35:24.687Z,99.99
2016-03-19T05:36:24.673Z,99.99
2016-03-19T05:37:24.660Z,99.99
2016-03-19T05:38:24.662Z,99.99
2016-03-19T05:39:24.618Z,99.99
2016-03-19T05:40:24.621Z,99.99
2016-03-19T05:41:24.592Z,99.99
2016-03-19T05:42:24.580Z,99.99
2016-03-19T05:43:24.582Z,99.99
2016-03-19T05:44:24.554Z,99.99
2016-03-19T05:45:24.541Z,99.99
2016-03-19T05:46:24.512Z,99.99
2016-03-19T05:47:24.500Z,99.99
2016-03-19T05:48:24.486Z,99.99
2016-03-19T05:49:24.474Z,99.99
2016-03-19T05:50:24.460Z,99.99
2016-03-19T05:51:24.433Z,99.99
2016-03-19T05:52:24.419Z,99.99
2016-03-19T05:53:24.406Z,99.99
2016-03-19T05:54:24.393Z,99.99
2016-03-19T05:55:24.380Z,99.99
2016-03-19T05:56:24.368Z,99.99
2016-03-19T05:57:24.338Z,99.99
2016-03-19T05:58:24.341Z,99.99
2016-03-19T05:59:24.344Z,99.99
2016-03-19T06:00:24.300Z,99.99
2016-03-19T06:01:24.287Z,99.99
2016-03-19T06:02:24.273Z,99.99
2016-03-19T06:03:24.246Z,99.99
2016-03-19T06:04:24.451Z,99.99
2016-03-19T06:05:24.220Z,99.99
2016-03-19T06:06:24.206Z,99.99
2016-03-19T06:07:24.193Z,99.99
2016-03-19T06:08:24.165Z,99.99
2016-03-19T06:09:24.152Z,99.99
2016-03-19T06:10:24.156Z,99.99
2016-03-19T06:11:24.142Z,99.99
2016-03-19T06:12:24.113Z,99.99
2016-03-19T06:13:24.101Z,99.99
2016-03-19T06:14:24.072Z,99.99
2016-03-19T06:15:24.075Z,99.99
2016-03-19T06:16:24.061Z,99.99
2016-03-19T06:17:24.033Z,99.99
2016-03-19T06:18:24.223Z,99.99
2016-03-19T06:19:24.007Z,99.99
2016-03-19T06:20:23.994Z,99.99
2016-03-19T06:21:23.981Z,99.99
2016-03-19T06:22:23.969Z,99.99
2016-03-19T06:23:23.940Z,99.99
2016-03-19T06:24:23.927Z,99.99
2016-03-19T06:25:24.210Z,99.99
2016-03-19T06:26:23.886Z,99.99
2016-03-19T06:27:23.872Z,99.99
2016-03-19T06:28:23.874Z,99.99
2016-03-19T06:29:23.846Z,99.99
2016-03-19T06:30:23.834Z,99.99
2016-03-19T06:31:23.824Z,99.99
2016-03-19T06:32:23.795Z,99.99
2016-03-19T06:33:23.782Z,99.99
2016-03-19T06:34:23.769Z,99.99
2016-03-19T06:35:23.756Z,99.99
2016-03-19T06:36:23.743Z,99.99
2016-03-19T06:37:23.731Z,99.99
2016-03-19T06:38:23.717Z,99.99
2016-03-19T06:39:23.689Z,99.99
2016-03-19T06:40:23.675Z,99.99
2016-03-19T06:41:23.663Z,99.99
2016-03-19T06:42:23.650Z,99.99
2016-03-19T06:43:23.622Z,99.99
2016-03-19T06:44:23.609Z,99.99
2016-03-19T06:45:23.595Z,99.99
2016-03-19T06:46:23.598Z,99.99
2016-03-19T06:47:23.569Z,99.99
2016-03-19T06:48:23.557Z,99.99
2016-03-19T06:49:23.544Z,99.99
2016-03-19T06:50:23.516Z,99.99
2016-03-19T06:51:23.502Z,99.99
2016-03-19T06:52:23.505Z,99.99
2016-03-19T06:53:23.477Z,99.99
2016-03-19T06:54:23.463Z,99.99
2016-03-19T06:55:23.450Z,99.99
2016-03-19T06:56:23.422Z,99.99
2016-03-19T06:57:23.409Z,99.99
2016-03-19T06:58:23.427Z,99.99
2016-03-19T06:59:23.383Z,99.99
2016-03-19T07:00:23.371Z,99.99
2016-03-19T07:01:23.357Z,99.99
2016-03-19T07:02:23.344Z,99.99
2016-03-19T07:03:23.315Z,99.99
2016-03-19T07:04:23.663Z,99.99
2016-03-19T07:05:23.290Z,99.99
2016-03-19T07:06:23.293Z,99.99
2016-03-19T07:07:23.265Z,99.99
2016-03-19T07:08:23.251Z,99.99
2016-03-19T07:09:23.238Z,99.99
2016-03-19T07:10:23.210Z,99.99
2016-03-19T07:11:23.197Z,99.99
2016-03-19T07:12:23.184Z,99.99
2016-03-19T07:13:23.170Z,99.99
2016-03-19T07:14:23.142Z,99.99
2016-03-19T07:15:23.129Z,99.96
2016-03-19T07:16:23.116Z,99.99
2016-03-19T07:17:23.120Z,99.58
2016-03-19T07:18:23.091Z,99.68
2016-03-19T07:19:23.078Z,99.49
2016-03-19T07:20:23.064Z,99.58
2016-03-19T07:21:23.052Z,99.2
2016-03-19T07:22:23.039Z,99.58
2016-03-19T07:23:23.011Z,99.68
2016-03-19T07:24:23.013Z,99.77
2016-03-19T07:25:22.985Z,99.77
2016-03-19T07:26:22.972Z,99.58
2016-03-19T07:27:22.958Z,99.58
2016-03-19T07:28:22.946Z,99.3
2016-03-19T07:29:22.933Z,99.11
2016-03-19T07:30:22.920Z,99.49
2016-03-19T07:31:22.891Z,99.3
2016-03-19T07:32:22.879Z,99.11
2016-03-19T07:33:22.866Z,99.11
2016-03-19T07:34:22.852Z,98.73
2016-03-19T07:35:22.840Z,98.82
2016-03-19T07:36:22.827Z,98.82
2016-03-19T07:37:22.798Z,98.63
2016-03-19T07:38:22.801Z,98.82
2016-03-19T07:39:22.788Z,98.82
2016-03-19T07:40:22.759Z,98.73
2016-03-19T07:41:22.746Z,98.35
2016-03-19T07:42:22.733Z,98.44
2016-03-19T07:43:22.721Z,98.73
2016-03-19T07:44:22.707Z,98.54
2016-03-19T07:45:22.695Z,98.73
2016-03-19T07:46:22.666Z,98.73
2016-03-19T07:47:22.653Z,98.35
2016-03-19T07:48:22.640Z,98.54
2016-03-19T07:49:22.627Z,98.44
2016-03-19T07:50:22.614Z,98.73
2016-03-19T07:51:22.586Z,98.54
2016-03-19T07:52:22.573Z,98.44
2016-03-19T07:53:22.560Z,98.07
2016-03-19T07:54:22.547Z,97.69
2016-03-19T07:55:22.533Z,97.78
2016-03-19T07:56:22.536Z,97.88
2016-03-19T07:57:22.507Z,98.25
2016-03-19T07:58:22.494Z,97.97
2016-03-19T07:59:22.466Z,97.88
2016-03-19T08:00:22.454Z,97.97
2016-03-19T08:01:22.440Z,97.78
2016-03-19T08:02:22.427Z,97.97
2016-03-19T08:03:22.430Z,97.88
2016-03-19T08:04:22.401Z,98.16
2016-03-19T08:05:22.389Z,98.25
2016-03-19T08:06:22.376Z,97.88
2016-03-19T08:07:22.348Z,97.5
2016-03-19T08:08:22.350Z,97.4
2016-03-19T08:09:22.337Z,97.78
2016-03-19T08:10:22.308Z,97.36
2016-03-19T08:11:22.295Z,97.59
2016-03-19T08:12:22.282Z,97.4
2016-03-19T08:13:22.270Z,97.45
2016-03-19T08:14:22.257Z,97.59
2016-03-19T08:15:22.245Z,97.45
2016-03-19T08:16:22.247Z,97.17
2016-03-19T08:17:22.203Z,97.07
2016-03-19T08:18:22.189Z,97.36
2016-03-19T08:19:22.176Z,96.78
2016-03-19T08:20:22.179Z,96.88
2016-03-19T08:21:22.151Z,96.78
2016-03-19T08:22:22.122Z,96.88
2016-03-19T08:23:22.125Z,96.69
2016-03-19T08:24:22.097Z,96.69
2016-03-19T08:25:22.099Z,96.59
2016-03-19T08:26:22.070Z,96.69
2016-03-19T08:27:22.058Z,96.59
2016-03-19T08:28:22.045Z,96.5
2016-03-19T08:29:22.032Z,96.12
2016-03-19T08:30:22.034Z,96.22
2016-03-19T08:31:22.021Z,95.65
2016-03-19T08:32:21.993Z,95.36
2016-03-19T08:33:21.980Z,94.6
2016-03-19T08:34:21.967Z,93.84
2016-03-19T08:35:21.955Z,93.84
2016-03-19T08:36:21.941Z,94.13
2016-03-19T08:37:21.912Z,94.13
2016-03-19T08:38:21.899Z,94.32
2016-03-19T08:39:21.902Z,93.94
2016-03-19T08:40:21.873Z,94.13
2016-03-19T08:41:21.876Z,94.03
2016-03-19T08:42:21.863Z,94.32
2016-03-19T08:43:21.851Z,94.7
2016-03-19T08:44:21.837Z,94.6
2016-03-19T08:45:21.825Z,95.17
2016-03-19T08:46:21.796Z,95.17
2016-03-19T08:47:21.783Z,94.98
2016-03-19T08:48:21.786Z,94.98
2016-03-19T08:49:21.756Z,94.42
2016-03-19T08:50:21.729Z,94.6
2016-03-19T08:51:21.731Z,94.89
2016-03-19T08:52:21.718Z,94.03
2016-03-19T08:53:21.690Z,94.23
2016-03-19T08:54:21.692Z,94.13
2016-03-19T08:55:21.664Z,94.23
2016-03-19T08:56:21.666Z,94.03
2016-03-19T08:57:21.654Z,94.23
2016-03-19T08:58:21.688Z,94.03
2016-03-19T08:59:21.612Z,94.03
2016-03-19T09:00:21.600Z,93.89
2016-03-19T09:01:21.586Z,93.99
2016-03-19T09:02:21.574Z,93.37
2016-03-19T09:03:21.560Z,93.84
2016-03-19T09:04:21.547Z,93.65
2016-03-19T09:05:21.535Z,94.23
2016-03-19T09:06:21.521Z,94.13
2016-03-19T09:07:21.510Z,94.32
2016-03-19T09:08:21.512Z,94.08
2016-03-19T09:09:21.468Z,94.08
2016-03-19T09:10:21.470Z,93.41
2016-03-19T09:11:21.441Z,92.99
2016-03-19T09:12:21.443Z,93.27
2016-03-19T09:13:21.509Z,93.51
2016-03-19T09:14:21.417Z,93.7
2016-03-19T09:15:21.390Z,93.13
2016-03-19T09:16:21.376Z,92.85
2016-03-19T09:17:21.364Z,92.75
2016-03-19T09:18:21.351Z,92.75
2016-03-19T09:19:21.337Z,93.32
2016-03-19T09:20:21.325Z,93.51
2016-03-19T09:21:21.311Z,93.6
2016-03-19T09:22:21.300Z,92.75
2016-03-19T09:23:21.286Z,92.66
2016-03-19T09:24:21.273Z,92.47
2016-03-19T09:25:21.260Z,92.66
2016-03-19T09:26:21.247Z,92.66
2016-03-19T09:27:21.234Z,92.75
2016-03-19T09:28:21.236Z,92.66
2016-03-19T09:29:21.208Z,92.47
2016-03-19T09:30:21.196Z,92.66
2016-03-19T09:31:21.183Z,92.18
2016-03-19T09:32:21.169Z,92.37
2016-03-19T09:33:21.157Z,92.47
2016-03-19T09:34:21.128Z,91.71
2016-03-19T09:35:21.115Z,92.37
2016-03-19T09:36:21.102Z,92.47
2016-03-19T09:37:21.105Z,92.09
2016-03-19T09:38:21.093Z,91.52
2016-03-19T09:39:21.063Z,91.52
2016-03-19T09:40:21.066Z,90.95
2016-03-19T09:41:21.038Z,90.95
2016-03-19T09:42:21.040Z,91.14
2016-03-19T09:43:20.934Z,90.95
2016-03-19T09:44:20.999Z,90.38
2016-03-19T09:45:21.001Z,90.47
2016-03-19T09:46:20.973Z,90.76
2016-03-19T09:47:20.959Z,90.09
2016-03-19T09:48:20.948Z,90.19
2016-03-19T09:49:20.934Z,90.28
2016-03-19T09:50:20.921Z,90.28
2016-03-19T09:51:20.924Z,90.47
2016-03-19T09:52:20.895Z,90.66
2016-03-19T09:53:20.883Z,91.04
2016-03-19T09:54:20.869Z,90.76
2016-03-19T09:55:20.856Z,90.19
2016-03-19T09:56:20.844Z,90.47
2016-03-19T09:57:20.830Z,90.09
2016-03-19T09:58:20.833Z,89.72
2016-03-19T09:59:20.805Z,89.81
2016-03-19T10:00:20.792Z,89.9
2016-03-19T10:01:20.780Z,89.72
2016-03-19T10:02:20.750Z,90
2016-03-19T10:03:20.738Z,89.43
2016-03-19T10:04:20.724Z,88.76
2016-03-19T10:05:20.743Z,89.43
2016-03-19T10:06:20.714Z,88.86
2016-03-19T10:07:20.702Z,88.67
2016-03-19T10:08:20.673Z,88.9
2016-03-19T10:09:20.660Z,88.62
2016-03-19T10:10:20.646Z,89
2016-03-19T10:11:20.634Z,88.95
2016-03-19T10:12:20.637Z,88.57
2016-03-19T10:13:20.624Z,88.39
2016-03-19T10:14:20.611Z,88.48
2016-03-19T10:15:20.568Z,88.34
2016-03-19T10:16:20.540Z,88.9
2016-03-19T10:17:20.527Z,88.43
2016-03-19T10:18:20.482Z,87.76
2016-03-19T10:19:20.453Z,87.76
2016-03-19T10:20:20.450Z,87.1
2016-03-19T10:21:20.415Z,87.19
2016-03-19T10:22:20.413Z,87.1
2016-03-19T10:23:20.395Z,87.19
2016-03-19T10:24:20.361Z,87.38
2016-03-19T10:25:20.361Z,86.91
2016-03-19T10:26:20.330Z,85.58
2016-03-19T10:27:20.331Z,85.39
2016-03-19T10:28:20.176Z,85.01
2016-03-19T10:29:20.302Z,85.62
2016-03-19T10:30:20.287Z,84.77
2016-03-19T10:31:20.274Z,84.58
2016-03-19T10:32:20.260Z,83.72
2016-03-19T10:33:20.262Z,83.34
2016-03-19T10:34:20.233Z,82.96
2016-03-19T10:35:20.064Z,82.29
2016-03-19T10:36:20.207Z,82.58
2016-03-19T10:37:20.209Z,82.77
2016-03-19T10:38:20.179Z,82.58
2016-03-19T10:39:20.182Z,82.29
2016-03-19T10:40:20.153Z,82.58
2016-03-19T10:41:20.141Z,82.2
2016-03-19T10:42:20.143Z,82.49
2016-03-19T10:43:20.130Z,82.49
2016-03-19T10:44:20.117Z,81.54
2016-03-19T10:45:20.105Z,81.35
2016-03-19T10:46:20.092Z,81.82
2016-03-19T10:47:20.078Z,81.82
2016-03-19T10:48:20.066Z,81.63
2016-03-19T10:49:20.052Z,81.54
2016-03-19T10:50:20.055Z,80.77
2016-03-19T10:51:20.027Z,80.44
2016-03-19T10:52:20.013Z,79.35
2016-03-19T10:53:20.016Z,79.35
2016-03-19T10:54:19.988Z,79.92
2016-03-19T10:55:19.975Z,79.73
2016-03-19T10:56:19.978Z,79.44
2016-03-19T10:57:19.965Z,79.25
2016-03-19T10:58:19.968Z,79.16
2016-03-19T10:59:19.939Z,79.2
2016-03-19T11:00:19.926Z,79.01
2016-03-19T11:01:19.913Z,78.72
2016-03-19T11:02:19.900Z,78.82
2016-03-19T11:03:19.903Z,78.82
2016-03-19T11:04:19.874Z,78.63
2016-03-19T11:05:19.861Z,78.82
2016-03-19T11:06:19.848Z,79.01
2016-03-19T11:07:19.836Z,78.91
2016-03-19T11:08:19.838Z,78.72
2016-03-19T11:09:19.825Z,79.01
2016-03-19T11:10:19.797Z,79.11
2016-03-19T11:11:19.800Z,78.63
2016-03-19T11:12:19.786Z,78.63
2016-03-19T11:13:19.633Z,78.53
2016-03-19T11:14:19.761Z,77.58
2016-03-19T11:15:19.763Z,77.87
2016-03-19T11:16:19.735Z,77.3
2016-03-19T11:17:19.722Z,77.68
2016-03-19T11:18:19.708Z,78.16
2016-03-19T11:19:19.696Z,78.69
2016-03-19T11:20:19.698Z,78.78
2016-03-19T11:21:19.686Z,79.39
2016-03-19T11:22:19.672Z,78.72
2016-03-19T11:23:19.660Z,79.01
2016-03-19T11:24:19.646Z,78.82
2016-03-19T11:25:19.634Z,78.82
2016-03-19T11:26:19.637Z,77.68
2016-03-19T11:27:19.607Z,77.45
2016-03-19T11:28:19.596Z,78.21
2016-03-19T11:29:19.598Z,77.55
2016-03-19T11:30:19.569Z,77.83
2016-03-19T11:31:19.556Z,77.92
2016-03-19T11:32:19.559Z,77.55
2016-03-19T11:33:19.530Z,77.58
2016-03-19T11:34:19.517Z,77.01
2016-03-19T11:35:19.520Z,76.44
2016-03-19T11:36:19.507Z,76.44
2016-03-19T11:37:19.495Z,76.73
2016-03-19T11:38:19.482Z,76.82
2016-03-19T11:39:19.468Z,77.01
2016-03-19T11:40:19.456Z,76.73
2016-03-19T11:41:19.458Z,76.54
2016-03-19T11:42:19.430Z,76.44
2016-03-19T11:43:19.416Z,76.35
2016-03-19T11:44:19.403Z,77.01
2016-03-19T11:45:19.405Z,75.87
2016-03-19T11:46:19.377Z,75.49
2016-03-19T11:47:19.381Z,75.68
2016-03-19T11:48:19.367Z,75.87
2016-03-19T11:49:19.370Z,76.44
2016-03-19T11:50:19.342Z,76.63
2016-03-19T11:51:19.329Z,75.49
2016-03-19T11:52:19.315Z,76.06
2016-03-19T11:53:19.303Z,75.96
2016-03-19T11:54:19.290Z,76.06
2016-03-19T11:55:19.293Z,76.35
2016-03-19T11:56:19.279Z,76.44
2016-03-19T11:57:19.251Z,76.63
2016-03-19T11:58:19.254Z,76.73
2016-03-19T11:59:19.240Z,77.01
2016-03-19T12:00:19.228Z,77.49
2016-03-19T12:01:19.246Z,77.68
2016-03-19T12:02:19.201Z,77.39
2016-03-19T12:03:19.033Z,77.39
2016-03-19T12:04:19.176Z,77.49
2016-03-19T12:05:19.179Z,77.3
2016-03-19T12:06:19.165Z,77.58
2016-03-19T12:07:19.137Z,77.77
2016-03-19T12:08:19.125Z,77.97
2016-03-19T12:09:19.127Z,78.34
2016-03-19T12:10:19.114Z,78.4
2016-03-19T12:11:19.101Z,78.5
2016-03-19T12:12:19.104Z,78.5
2016-03-19T12:13:19.076Z,78.16
2016-03-19T12:14:19.062Z,78.06
2016-03-19T12:15:19.065Z,78.25
2016-03-19T12:16:19.052Z,77.58
2016-03-19T12:17:19.024Z,76.92
2016-03-19T12:18:19.010Z,77.01
2016-03-19T12:19:18.998Z,76.73
2016-03-19T12:20:18.985Z,77.01
2016-03-19T12:21:18.972Z,76.82
2016-03-19T12:22:18.974Z,77.39
2016-03-19T12:23:18.961Z,76.63
2016-03-19T12:24:18.949Z,76.73
2016-03-19T12:25:18.936Z,76.63
2016-03-19T12:26:18.923Z,77.01
2016-03-19T12:27:18.909Z,77.39
2016-03-19T12:28:18.913Z,77.2
2016-03-19T12:29:18.899Z,76.82
2016-03-19T12:30:18.887Z,77.39
2016-03-19T12:31:18.874Z,77.77
2016-03-19T12:32:18.845Z,77.49
2016-03-19T12:33:18.848Z,77.58
2016-03-19T12:34:18.834Z,77.97
2016-03-19T12:35:18.823Z,78.34
2016-03-19T12:36:18.809Z,77.49
2016-03-19T12:37:18.795Z,77.68
2016-03-19T12:38:18.798Z,77.49
2016-03-19T12:39:18.770Z,77.49
2016-03-19T12:40:18.757Z,77.39
2016-03-19T12:41:18.745Z,77.49
2016-03-19T12:42:18.747Z,77.49
2016-03-19T12:43:18.734Z,77.58
2016-03-19T12:44:18.721Z,77.68
2016-03-19T12:45:18.709Z,77.58
2016-03-19T12:46:18.680Z,77.68
2016-03-19T12:47:18.682Z,77.49
2016-03-19T12:48:18.670Z,77.77
2016-03-19T12:49:18.656Z,77.49
2016-03-19T12:50:18.644Z,77.49
2016-03-19T12:51:18.647Z,76.63
2016-03-19T12:52:18.618Z,76.48
2016-03-19T12:53:18.620Z,76.1